Time;durP1;ratioP1;P1;durP2;ratioP2;P2;SDS_P1;SDS_P2;PMS_P1;PMS_P2;Temp;Humidity;BMP_temperature;BMP_pressure;BME280_temperature;BME280_humidity;BME280_pressure;Samples;Min_cycle;Max_cycle;Signal;HPM_P1;HPM_P2
2023/02/07 00:02:03;;;;;;;;;;;2.80;99.90;;;;;;5095723;28;19943;-58
2023/02/07 00:04:29;;;;;;;;;;;2.90;99.90;;;;;;5095247;28;19928;-58
2023/02/07 00:06:56;;;;;;;;;;;2.80;99.90;;;;;;5096108;28;19927;-58
2023/02/07 00:09:23;;;;;;;;;;;2.70;99.90;;;;;;5096472;28;19935;-58
2023/02/07 00:11:50;;;;;;;;;;;2.30;99.90;;;;;;5096101;28;19924;-58
2023/02/07 00:14:17;;;;;;;;;;;2.30;99.90;;;;;;5096359;28;19927;-57
2023/02/07 00:16:45;;;;;;;;;;;2.20;99.90;;;;;;5095827;28;20303;-58
2023/02/07 00:19:12;;;;;;;;;;;1.90;99.90;;;;;;5095460;28;20207;-57
2023/02/07 00:21:38;;;;;;;;;;;1.70;99.90;;;;;;5095077;28;19927;-57
2023/02/07 00:24:06;;;;;;;;;;;1.60;99.90;;;;;;5096520;28;19920;-58
2023/02/07 00:26:33;;;;;;;;;;;1.50;99.90;;;;;;5099687;28;20286;-57
2023/02/07 00:29:00;;;;;;;;;;;1.50;99.90;;;;;;5098707;28;19969;-57
2023/02/07 00:31:27;;;;;;;;;;;1.50;99.90;;;;;;5098502;28;19920;-58
2023/02/07 00:33:57;;;;;;;;;;;1.70;99.90;;;;;;5099373;28;20413;-57
2023/02/07 00:36:25;;;;;;;;;;;1.80;99.90;;;;;;5097686;28;19920;-57
2023/02/07 00:38:55;;;;;;;;;;;1.50;99.90;;;;;;5099067;28;19920;-57
2023/02/07 00:41:22;;;;;;;;;;;1.50;99.90;;;;;;5098433;28;19927;-58
2023/02/07 00:43:49;;;;;;;;;;;1.60;99.90;;;;;;5098601;28;19920;-58
2023/02/07 00:46:16;;;;;;;;;;;1.60;99.90;;;;;;5099328;28;19924;-58
2023/02/07 00:48:43;;;;;;;;;;;1.60;99.90;;;;;;5099505;28;19919;-58
2023/02/07 00:51:13;;;;;;;;;;;1.50;99.90;;;;;;5099612;28;20291;-58
2023/02/07 00:53:40;;;;;;;;;;;1.60;99.90;;;;;;5098999;28;20197;-57
2023/02/07 00:56:07;;;;;;;;;;;1.60;99.90;;;;;;5098274;28;20290;-58
2023/02/07 00:58:35;;;;;;;;;;;1.40;99.90;;;;;;5098642;28;19920;-58
2023/02/07 01:01:01;;;;;;;;;;;1.40;99.90;;;;;;5099504;28;20006;-56
2023/02/07 01:03:28;;;;;;;;;;;1.70;99.90;;;;;;5099448;28;19923;-57
2023/02/07 01:05:55;;;;;;;;;;;1.60;99.90;;;;;;5098952;28;19926;-57
2023/02/07 01:08:23;;;;;;;;;;;1.40;99.90;;;;;;5099296;28;19927;-57
2023/02/07 01:10:50;;;;;;;;;;;1.10;99.90;;;;;;5099741;28;19946;-56
2023/02/07 01:13:17;;;;;;;;;;;1.00;99.90;;;;;;5099506;28;19926;-56
2023/02/07 01:15:45;;;;;;;;;;;0.90;99.90;;;;;;5099051;28;19927;-57
2023/02/07 01:18:12;;;;;;;;;;;0.90;99.90;;;;;;5099202;28;20366;-57
2023/02/07 01:20:40;;;;;;;;;;;1.10;99.90;;;;;;5099406;28;19926;-56
2023/02/07 01:23:07;;;;;;;;;;;1.10;99.90;;;;;;5099323;28;19926;-57
2023/02/07 01:25:35;;;;;;;;;;;1.10;99.90;;;;;;5099230;28;19966;-57
2023/02/07 01:28:02;;;;;;;;;;;1.10;99.90;;;;;;5098922;28;19920;-57
2023/02/07 01:30:29;;;;;;;;;;;1.00;99.90;;;;;;5099098;28;20300;-57
2023/02/07 01:32:56;;;;;;;;;;;1.00;99.90;;;;;;5098808;28;20219;-58
2023/02/07 01:35:23;;;;;;;;;;;1.10;99.90;;;;;;5097932;28;19985;-58
2023/02/07 01:37:50;;;;;;;;;;;1.10;99.90;;;;;;5098684;28;19926;-56
2023/02/07 01:40:17;;;;;;;;;;;1.20;99.90;;;;;;5098786;28;19919;-57
2023/02/07 01:42:45;;;;;;;;;;;1.20;99.90;;;;;;5098158;28;20010;-56
2023/02/07 01:45:21;;;;;;;;;;;1.10;99.90;;;;;;5097512;28;19927;-56
2023/02/07 01:47:48;;;;;;;;;;;0.90;99.90;;;;;;5098384;28;19926;-57
2023/02/07 01:50:15;;;;;;;;;;;1.00;99.90;;;;;;5098815;28;19920;-57
2023/02/07 01:52:42;;;;;;;;;;;1.10;99.90;;;;;;5098796;28;19934;-57
2023/02/07 01:55:11;;;;;;;;;;;1.00;99.90;;;;;;5098124;28;20307;-58
2023/02/07 01:57:38;;;;;;;;;;;1.10;99.90;;;;;;5097229;28;20246;-56
2023/02/07 02:00:08;;;;;;;;;;;1.20;99.90;;;;;;5097255;28;19920;-57
2023/02/07 02:02:36;;;;;;;;;;;1.30;99.90;;;;;;5097081;28;19943;-57
2023/02/07 02:05:04;;;;;;;;;;;1.50;99.90;;;;;;5096171;28;19970;-57
2023/02/07 02:07:31;;;;;;;;;;;1.30;99.90;;;;;;5096767;28;20234;-57
2023/02/07 02:09:59;;;;;;;;;;;1.20;99.90;;;;;;5097005;28;20304;-56
2023/02/07 02:12:31;;;;;;;;;;;1.20;99.90;;;;;;5097293;28;19920;-57
2023/02/07 02:15:08;;;;;;;;;;;1.20;99.90;;;;;;5098013;28;19920;-56
2023/02/07 02:17:41;;;;;;;;;;;1.00;99.90;;;;;;5098078;28;20381;-57
2023/02/07 02:20:25;;;;;;;;;;;0.70;99.90;;;;;;5098674;28;19923;-57
2023/02/07 02:22:58;;;;;;;;;;;0.70;99.90;;;;;;5098882;28;19920;-57
2023/02/07 02:25:40;;;;;;;;;;;0.70;99.90;;;;;;5097830;28;19920;-57
2023/02/07 02:28:13;;;;;;;;;;;0.90;99.90;;;;;;5097581;28;19919;-57
2023/02/07 02:30:49;;;;;;;;;;;0.90;99.90;;;;;;5098112;28;19926;-56
2023/02/07 02:33:29;;;;;;;;;;;0.80;99.90;;;;;;5098051;28;20211;-56
2023/02/07 02:36:01;;;;;;;;;;;0.70;99.90;;;;;;5096909;28;19959;-56
2023/02/07 02:38:32;;;;;;;;;;;0.60;99.90;;;;;;5097584;28;20342;-56
2023/02/07 02:41:02;;;;;;;;;;;0.40;99.90;;;;;;5096410;28;19931;-56
2023/02/07 02:43:34;;;;;;;;;;;0.40;99.90;;;;;;5096867;28;19927;-54
2023/02/07 02:46:03;;;;;;;;;;;0.30;99.90;;;;;;5097098;28;19920;-55
2023/02/07 02:48:32;;;;;;;;;;;0.20;99.90;;;;;;5097972;28;19920;-51
2023/02/07 02:50:59;;;;;;;;;;;0.10;99.90;;;;;;5097610;28;20010;-54
2023/02/07 02:53:26;;;;;;;;;;;0.20;99.90;;;;;;5097395;28;20215;-54
2023/02/07 02:56:02;;;;;;;;;;;0.30;99.90;;;;;;5097684;28;20019;-51
2023/02/07 02:58:36;;;;;;;;;;;0.20;99.90;;;;;;5097634;28;20014;-54
2023/02/07 03:01:09;;;;;;;;;;;0.20;99.90;;;;;;5096394;28;19920;-52
2023/02/07 03:03:54;;;;;;;;;;;0.30;99.90;;;;;;5097880;28;19920;-54
2023/02/07 03:06:28;;;;;;;;;;;0.50;99.90;;;;;;5097673;28;19944;-55
2023/02/07 03:09:00;;;;;;;;;;;0.60;99.90;;;;;;5097767;28;19926;-53
2023/02/07 03:11:30;;;;;;;;;;;0.60;99.90;;;;;;5097307;28;20228;-55
2023/02/07 03:14:00;;;;;;;;;;;0.60;99.90;;;;;;5097762;28;19927;-56
2023/02/07 03:16:29;;;;;;;;;;;0.60;99.90;;;;;;5096390;28;19943;-56
2023/02/07 03:19:01;;;;;;;;;;;0.50;99.90;;;;;;5094281;28;19920;-55
2023/02/07 03:21:30;;;;;;;;;;;0.40;99.90;;;;;;5094204;28;19920;-56
2023/02/07 03:23:57;;;;;;;;;;;0.50;99.90;;;;;;5094047;28;19938;-55
2023/02/07 03:26:25;;;;;;;;;;;0.70;99.90;;;;;;5094099;28;19920;-52
2023/02/07 03:28:53;;;;;;;;;;;0.50;99.90;;;;;;5094485;28;19927;-54
2023/02/07 03:31:21;;;;;;;;;;;0.60;99.90;;;;;;5095176;28;20370;-56
2023/02/07 03:33:51;;;;;;;;;;;0.60;99.90;;;;;;5096622;28;20011;-53
2023/02/07 03:36:22;;;;;;;;;;;0.60;99.90;;;;;;5096235;28;19930;-55
2023/02/07 03:38:49;;;;;;;;;;;0.60;99.90;;;;;;5096736;28;19920;-55
2023/02/07 03:41:18;;;;;;;;;;;0.70;99.90;;;;;;5095026;28;19926;-60
2023/02/07 03:43:45;;;;;;;;;;;0.80;99.90;;;;;;5096547;28;19927;-55
2023/02/07 03:46:12;;;;;;;;;;;0.80;99.90;;;;;;5097052;28;19959;-55
2023/02/07 03:48:39;;;;;;;;;;;0.60;99.90;;;;;;5096915;28;20023;-54
2023/02/07 03:51:06;;;;;;;;;;;0.30;99.90;;;;;;5095840;28;19920;-55
2023/02/07 03:53:34;;;;;;;;;;;0.40;99.90;;;;;;5095927;28;20002;-54
2023/02/07 03:56:01;;;;;;;;;;;0.40;99.90;;;;;;5096463;28;19919;-56
2023/02/07 03:58:28;;;;;;;;;;;0.50;99.90;;;;;;5095834;28;19919;-56
2023/02/07 04:00:55;;;;;;;;;;;0.50;99.90;;;;;;5096221;28;19920;-56
2023/02/07 04:03:22;;;;;;;;;;;0.30;99.90;;;;;;5095964;28;20299;-56
2023/02/07 04:05:49;;;;;;;;;;;0.30;99.90;;;;;;5095902;28;19920;-56
2023/02/07 04:08:15;;;;;;;;;;;0.40;99.90;;;;;;5096362;28;19927;-56
2023/02/07 04:10:44;;;;;;;;;;;0.50;99.90;;;;;;5095930;28;19926;-55
2023/02/07 04:13:11;;;;;;;;;;;0.70;99.90;;;;;;5094533;28;19920;-56
2023/02/07 04:15:37;;;;;;;;;;;0.90;99.90;;;;;;5095226;28;19926;-56
2023/02/07 04:18:04;;;;;;;;;;;1.00;99.90;;;;;;5095275;28;20235;-55
2023/02/07 04:20:31;;;;;;;;;;;1.00;99.90;;;;;;5095327;28;19942;-56
2023/02/07 04:22:58;;;;;;;;;;;0.90;99.90;;;;;;5095152;28;19920;-56
2023/02/07 04:25:25;;;;;;;;;;;0.80;99.90;;;;;;5095938;28;19920;-56
2023/02/07 04:27:53;;;;;;;;;;;0.80;99.90;;;;;;5096884;28;19927;-56
2023/02/07 04:30:20;;;;;;;;;;;0.70;99.90;;;;;;5095201;28;19920;-56
2023/02/07 04:32:47;;;;;;;;;;;0.50;99.90;;;;;;5095925;28;19927;-55
2023/02/07 04:35:14;;;;;;;;;;;0.40;99.90;;;;;;5095748;28;20019;-57
2023/02/07 04:37:41;;;;;;;;;;;0.50;99.90;;;;;;5094467;28;19988;-58
2023/02/07 04:40:08;;;;;;;;;;;0.50;99.90;;;;;;5095969;28;19927;-58
2023/02/07 04:42:35;;;;;;;;;;;0.30;99.90;;;;;;5096022;28;20344;-58
2023/02/07 04:45:07;;;;;;;;;;;0.30;99.90;;;;;;5095724;28;20469;-59
2023/02/07 04:47:34;;;;;;;;;;;0.20;99.90;;;;;;5095472;28;19966;-57
2023/02/07 04:50:01;;;;;;;;;;;0.10;99.90;;;;;;5095380;28;19920;-57
2023/02/07 04:52:28;;;;;;;;;;;0.20;99.90;;;;;;5096089;28;19942;-57
2023/02/07 04:54:54;;;;;;;;;;;0.10;99.90;;;;;;5096013;28;19932;-58
2023/02/07 04:57:21;;;;;;;;;;;0.20;99.90;;;;;;5111415;28;19998;-57
2023/02/07 04:59:48;;;;;;;;;;;0.50;99.90;;;;;;5116195;28;19926;-56
2023/02/07 05:02:16;;;;;;;;;;;0.40;99.90;;;;;;5116607;28;19924;-59
2023/02/07 05:04:43;;;;;;;;;;;0.30;99.90;;;;;;5115850;28;19929;-58
2023/02/07 05:07:10;;;;;;;;;;;0.40;99.90;;;;;;5106891;28;19999;-57
2023/02/07 05:09:37;;;;;;;;;;;0.40;99.90;;;;;;5094839;28;19926;-56
2023/02/07 05:12:04;;;;;;;;;;;0.60;99.90;;;;;;5096207;28;19924;-57
2023/02/07 05:14:31;;;;;;;;;;;0.50;99.90;;;;;;5103106;28;20007;-57
2023/02/07 05:16:58;;;;;;;;;;;0.30;99.90;;;;;;5117724;28;19920;-55
2023/02/07 05:19:26;;;;;;;;;;;0.10;99.90;;;;;;5118676;28;20014;-58
2023/02/07 05:21:53;;;;;;;;;;;-0.10;99.90;;;;;;5118828;28;20019;-58
2023/02/07 05:24:20;;;;;;;;;;;-0.10;99.90;;;;;;5105047;28;19920;-57
2023/02/07 05:26:47;;;;;;;;;;;0.00;99.90;;;;;;5098883;28;20007;-57
2023/02/07 05:29:14;;;;;;;;;;;0.10;99.90;;;;;;5098367;28;19927;-58
2023/02/07 05:34:26;;;;;;;;;;;-0.50;99.90;;;;;;5096925;28;19923;-58
2023/02/07 05:36:53;;;;;;;;;;;-0.70;99.90;;;;;;5097386;28;19920;-58
2023/02/07 05:39:20;;;;;;;;;;;-0.50;99.90;;;;;;5097131;28;19927;-57
2023/02/07 05:41:47;;;;;;;;;;;-0.40;99.90;;;;;;5103228;28;19965;-59
2023/02/07 05:44:14;;;;;;;;;;;-0.30;99.90;;;;;;5119001;28;19919;-59
2023/02/07 05:46:41;;;;;;;;;;;0.00;99.90;;;;;;5119043;28;20327;-59
2023/02/07 05:49:08;;;;;;;;;;;0.10;99.90;;;;;;5119573;28;20014;-59
2023/02/07 05:51:36;;;;;;;;;;;-0.20;99.90;;;;;;5118453;28;20014;-59
2023/02/07 05:54:03;;;;;;;;;;;-0.30;99.90;;;;;;5118203;28;19966;-59
2023/02/07 05:56:30;;;;;;;;;;;-0.40;99.90;;;;;;5118326;28;19942;-59
2023/02/07 05:58:57;;;;;;;;;;;-0.50;99.90;;;;;;5117474;28;19920;-59
2023/02/07 06:01:24;;;;;;;;;;;-0.50;99.90;;;;;;5117794;28;19955;-60
2023/02/07 06:03:51;;;;;;;;;;;-0.30;99.90;;;;;;5116947;28;19972;-55
2023/02/07 06:06:17;;;;;;;;;;;-0.40;99.90;;;;;;5115100;28;20313;-55
2023/02/07 06:08:46;;;;;;;;;;;-0.50;99.90;;;;;;5117274;28;19942;-52
2023/02/07 06:11:12;;;;;;;;;;;-0.70;99.90;;;;;;5117677;28;20322;-56
2023/02/07 06:13:39;;;;;;;;;;;-0.30;99.90;;;;;;5116158;28;20424;-57
2023/02/07 06:16:08;;;;;;;;;;;-0.20;99.90;;;;;;5114727;28;19919;-56
2023/02/07 06:18:35;;;;;;;;;;;-0.50;99.90;;;;;;5114617;28;20338;-55
2023/02/07 06:21:02;;;;;;;;;;;-0.60;99.90;;;;;;5115770;28;19988;-56
2023/02/07 06:23:29;;;;;;;;;;;-0.40;99.90;;;;;;5115183;28;19920;-54
2023/02/07 06:25:57;;;;;;;;;;;-0.10;99.90;;;;;;5115376;28;19929;-55
2023/02/07 06:28:24;;;;;;;;;;;-0.10;99.90;;;;;;5114520;28;20329;-56
2023/02/07 06:30:51;;;;;;;;;;;-0.10;99.90;;;;;;5114113;28;20002;-54
2023/02/07 06:33:18;;;;;;;;;;;-0.20;99.90;;;;;;5112935;28;20022;-54
2023/02/07 06:35:46;;;;;;;;;;;-0.20;99.90;;;;;;5114533;28;19919;-55
2023/02/07 06:38:13;;;;;;;;;;;-0.40;99.90;;;;;;5115758;28;19920;-56
2023/02/07 06:40:40;;;;;;;;;;;-0.60;99.90;;;;;;5116218;28;20033;-54
2023/02/07 06:43:09;;;;;;;;;;;-0.60;99.90;;;;;;5116528;28;20517;-54
2023/02/07 06:45:36;;;;;;;;;;;-0.30;99.90;;;;;;5116074;28;19930;-56
2023/02/07 06:48:03;;;;;;;;;;;-0.10;99.90;;;;;;5117151;28;20311;-53
2023/02/07 06:50:30;;;;;;;;;;;-0.10;99.90;;;;;;5116805;28;20303;-55
2023/02/07 06:53:00;;;;;;;;;;;0.00;99.90;;;;;;5115847;28;20412;-54
2023/02/07 06:55:27;;;;;;;;;;;0.30;99.90;;;;;;5114734;28;20017;-55
2023/02/07 06:57:54;;;;;;;;;;;0.50;99.90;;;;;;5115599;28;20279;-52
2023/02/07 07:00:23;;;;;;;;;;;0.30;99.90;;;;;;5115182;28;19946;-55
2023/02/07 07:02:50;;;;;;;;;;;0.30;99.90;;;;;;5115617;28;20011;-54
2023/02/07 07:05:17;;;;;;;;;;;0.10;99.90;;;;;;5115113;28;19998;-56
2023/02/07 07:07:45;;;;;;;;;;;-0.10;99.90;;;;;;5108327;28;19935;-56
2023/02/07 07:10:12;;;;;;;;;;;-0.40;99.90;;;;;;5103267;28;19919;-55
2023/02/07 07:12:39;;;;;;;;;;;-0.40;99.90;;;;;;5100686;28;19928;-55
2023/02/07 07:15:09;;;;;;;;;;;-0.30;99.90;;;;;;5108907;28;19920;-56
2023/02/07 07:17:37;;;;;;;;;;;-0.50;99.90;;;;;;5097836;28;19920;-55
2023/02/07 07:20:04;;;;;;;;;;;-0.60;99.90;;;;;;5103600;28;19986;-56
2023/02/07 07:22:31;;;;;;;;;;;-0.70;99.90;;;;;;5095131;28;19998;-56
2023/02/07 07:24:58;;;;;;;;;;;-0.80;99.90;;;;;;5100488;28;19924;-57
2023/02/07 07:27:25;;;;;;;;;;;-0.80;99.90;;;;;;5108281;28;19930;-52
2023/02/07 07:29:51;;;;;;;;;;;-0.90;99.90;;;;;;5097626;28;20219;-57
2023/02/07 07:32:18;;;;;;;;;;;-0.80;99.90;;;;;;5093610;28;19920;-56
2023/02/07 07:34:48;;;;;;;;;;;-0.90;99.90;;;;;;5091062;28;19919;-56
2023/02/07 07:37:15;;;;;;;;;;;-0.80;99.90;;;;;;5094859;28;20034;-56
2023/02/07 07:39:43;;;;;;;;;;;-0.60;99.90;;;;;;5107401;28;19927;-56
2023/02/07 07:42:10;;;;;;;;;;;-0.40;99.90;;;;;;5092325;28;19924;-56
2023/02/07 07:44:37;;;;;;;;;;;-0.40;99.90;;;;;;5091580;28;20326;-53
2023/02/07 07:47:04;;;;;;;;;;;-0.20;99.90;;;;;;5093439;28;20010;-54
2023/02/07 07:49:31;;;;;;;;;;;-0.20;99.90;;;;;;5092948;28;19930;-55
2023/02/07 07:51:59;;;;;;;;;;;-0.20;99.90;;;;;;5093242;28;20346;-57
2023/02/07 07:54:26;;;;;;;;;;;-0.20;99.90;;;;;;5094733;28;19920;-56
2023/02/07 07:56:53;;;;;;;;;;;-0.40;99.90;;;;;;5094440;28;20442;-57
2023/02/07 07:59:20;;;;;;;;;;;-0.50;99.90;;;;;;5090818;28;20337;-56
2023/02/07 08:01:46;;;;;;;;;;;-0.70;99.90;;;;;;5092385;28;19919;-55
2023/02/07 08:04:13;;;;;;;;;;;-0.90;99.90;;;;;;5092916;28;19923;-55
2023/02/07 08:06:40;;;;;;;;;;;-0.90;99.90;;;;;;5091550;28;19923;-56
2023/02/07 08:09:08;;;;;;;;;;;-0.70;99.90;;;;;;5092190;28;20014;-56
2023/02/07 08:11:35;;;;;;;;;;;-0.60;99.90;;;;;;5089142;28;20506;-54
2023/02/07 08:14:02;;;;;;;;;;;-0.60;99.90;;;;;;5090818;28;19924;-56
2023/02/07 08:16:29;;;;;;;;;;;-0.60;99.90;;;;;;5092201;28;19924;-56
2023/02/07 08:18:56;;;;;;;;;;;-0.70;99.90;;;;;;5091335;28;19927;-56
2023/02/07 08:21:25;;;;;;;;;;;-0.60;99.90;;;;;;5092787;28;19928;-56
2023/02/07 08:23:52;;;;;;;;;;;-0.40;99.90;;;;;;5091124;28;19920;-54
2023/02/07 08:26:21;;;;;;;;;;;-0.30;99.90;;;;;;5088400;28;20516;-57
2023/02/07 08:28:49;;;;;;;;;;;-0.20;99.90;;;;;;5102795;28;19995;-55
2023/02/07 08:31:16;;;;;;;;;;;0.10;99.90;;;;;;5092814;28;19919;-55
2023/02/07 08:33:43;;;;;;;;;;;0.30;99.90;;;;;;5097307;28;19920;-56
2023/02/07 08:36:10;;;;;;;;;;;0.50;99.90;;;;;;5100142;28;20320;-52
2023/02/07 08:38:37;;;;;;;;;;;0.90;99.90;;;;;;5113814;28;19919;-55
2023/02/07 08:41:05;;;;;;;;;;;0.70;99.90;;;;;;5111450;28;20351;-57
2023/02/07 08:43:33;;;;;;;;;;;0.60;99.90;;;;;;5111503;28;20006;-55
2023/02/07 08:46:00;;;;;;;;;;;0.80;99.90;;;;;;5070030;28;19924;-54
2023/02/07 08:48:27;;;;;;;;;;;1.30;99.90;;;;;;5056034;28;19920;-56
2023/02/07 08:50:54;;;;;;;;;;;1.40;99.90;;;;;;5056263;28;19920;-57
2023/02/07 08:53:21;;;;;;;;;;;1.50;99.90;;;;;;5055316;28;19924;-56
2023/02/07 08:55:48;;;;;;;;;;;1.30;99.90;;;;;;5055967;28;19920;-57
2023/02/07 08:58:15;;;;;;;;;;;1.10;99.90;;;;;;5056833;28;19927;-58
2023/02/07 09:00:43;;;;;;;;;;;0.90;99.90;;;;;;5055297;28;19921;-58
2023/02/07 09:03:10;;;;;;;;;;;1.00;99.90;;;;;;5054978;28;19927;-57
2023/02/07 09:05:37;;;;;;;;;;;1.40;99.90;;;;;;5054895;28;19921;-57
2023/02/07 09:08:04;;;;;;;;;;;1.30;99.90;;;;;;5054949;28;19924;-56
2023/02/07 09:10:31;;;;;;;;;;;1.50;99.90;;;;;;5056111;28;20363;-57
2023/02/07 09:12:58;;;;;;;;;;;1.50;99.90;;;;;;5056518;28;20357;-56
2023/02/07 09:15:26;;;;;;;;;;;1.10;99.90;;;;;;5056687;28;19924;-59
2023/02/07 09:17:54;;;;;;;;;;;1.00;99.90;;;;;;5055883;28;20403;-59
2023/02/07 09:20:21;;;;;;;;;;;1.00;99.90;;;;;;5056842;28;20285;-58
2023/02/07 09:25:32;;;;;;;;;;;0.50;99.90;;;;;;5055911;28;20343;-58
2023/02/07 09:27:59;;;;;;;;;;;0.50;99.90;;;;;;5054934;28;20011;-57
2023/02/07 09:30:26;;;;;;;;;;;0.50;99.90;;;;;;5049392;28;19987;-59
2023/02/07 09:32:54;;;;;;;;;;;0.40;99.90;;;;;;5053170;28;20234;-59
2023/02/07 09:35:21;;;;;;;;;;;0.60;99.90;;;;;;5053641;28;20452;-59
2023/02/07 09:37:48;;;;;;;;;;;0.70;99.90;;;;;;5053022;28;19931;-58
2023/02/07 09:40:17;;;;;;;;;;;0.80;99.90;;;;;;5053376;28;19920;-59
2023/02/07 09:42:49;;;;;;;;;;;0.90;99.90;;;;;;5052282;28;19928;-59
2023/02/07 09:45:18;;;;;;;;;;;0.70;99.90;;;;;;5053065;28;19920;-56
2023/02/07 09:47:46;;;;;;;;;;;0.70;99.90;;;;;;5054975;28;19927;-59
2023/02/07 09:50:18;;;;;;;;;;;0.80;99.90;;;;;;5047533;28;20208;-59
2023/02/07 09:52:47;;;;;;;;;;;0.90;99.90;;;;;;5055402;28;20008;-58
2023/02/07 09:55:18;;;;;;;;;;;1.10;99.90;;;;;;5039637;28;20011;-59
2023/02/07 09:57:47;;;;;;;;;;;1.30;99.90;;;;;;5033324;28;20441;-58
2023/02/07 10:00:20;;;;;;;;;;;1.30;99.90;;;;;;5032712;28;19984;-58
2023/02/07 10:02:51;;;;;;;;;;;1.30;99.90;;;;;;5034754;28;20427;-58
2023/02/07 10:05:21;;;;;;;;;;;1.30;99.90;;;;;;5032696;28;19998;-57
2023/02/07 10:07:48;;;;;;;;;;;1.40;99.90;;;;;;5032275;28;19952;-58
2023/02/07 10:10:16;;;;;;;;;;;1.40;99.90;;;;;;5033666;28;19927;-58
2023/02/07 10:13:04;;;;;;;;;;;1.40;99.90;;;;;;5033840;28;19979;-58
2023/02/07 10:15:37;;;;;;;;;;;1.20;99.90;;;;;;5027901;28;19967;-58
2023/02/07 10:18:22;;;;;;;;;;;1.30;99.90;;;;;;5031978;28;20324;-58
2023/02/07 10:20:55;;;;;;;;;;;1.50;99.90;;;;;;5047380;28;19921;-58
2023/02/07 10:23:28;;;;;;;;;;;1.60;99.90;;;;;;5053509;28;19921;-58
2023/02/07 10:26:02;;;;;;;;;;;1.70;99.90;;;;;;5054109;28;19999;-56
2023/02/07 10:28:45;;;;;;;;;;;1.70;99.90;;;;;;5055032;28;19924;-58
2023/02/07 10:31:14;;;;;;;;;;;1.70;99.90;;;;;;5053515;28;19921;-58
2023/02/07 10:33:46;;;;;;;;;;;1.80;99.90;;;;;;5054856;28;19925;-58
2023/02/07 10:36:15;;;;;;;;;;;1.80;99.90;;;;;;5054446;28;19921;-58
2023/02/07 10:38:46;;;;;;;;;;;1.90;99.90;;;;;;5040275;28;20321;-57
2023/02/07 10:41:15;;;;;;;;;;;1.90;99.90;;;;;;5036451;28;19998;-57
2023/02/07 10:43:43;;;;;;;;;;;1.90;99.90;;;;;;5051201;28;20403;-58
2023/02/07 10:46:11;;;;;;;;;;;2.00;99.90;;;;;;5050322;28;20177;-58
2023/02/07 10:48:38;;;;;;;;;;;1.90;99.90;;;;;;5045908;28;20019;-58
2023/02/07 10:51:13;;;;;;;;;;;2.00;99.90;;;;;;5050912;28;20003;-59
2023/02/07 10:53:45;;;;;;;;;;;2.20;99.90;;;;;;5035650;28;19935;-59
2023/02/07 10:56:17;;;;;;;;;;;2.10;99.90;;;;;;5042050;28;19924;-59
2023/02/07 10:58:44;;;;;;;;;;;2.20;99.90;;;;;;5039279;28;19939;-59
2023/02/07 11:01:17;;;;;;;;;;;2.20;99.90;;;;;;5048869;28;19921;-59
2023/02/07 11:03:45;;;;;;;;;;;2.20;99.90;;;;;;5036969;28;20051;-59
2023/02/07 11:06:13;;;;;;;;;;;2.10;99.90;;;;;;5045764;28;20007;-59
2023/02/07 11:08:40;;;;;;;;;;;2.30;99.90;;;;;;5037128;28;19925;-59
2023/02/07 11:11:28;;;;;;;;;;;2.30;99.90;;;;;;5046547;28;20450;-61
2023/02/07 11:14:01;;;;;;;;;;;2.40;99.90;;;;;;5037749;28;19950;-60
2023/02/07 11:16:29;;;;;;;;;;;2.60;99.90;;;;;;5039847;28;20307;-59
2023/02/07 11:18:58;;;;;;;;;;;2.80;99.90;;;;;;5046460;28;19921;-60
2023/02/07 11:21:27;;;;;;;;;;;2.80;99.90;;;;;;5032110;28;19921;-60
2023/02/07 11:23:55;;;;;;;;;;;2.80;99.90;;;;;;5045385;28;20206;-60
2023/02/07 11:26:24;;;;;;;;;;;2.70;99.90;;;;;;5042155;28;19921;-59
2023/02/07 11:28:52;;;;;;;;;;;2.70;99.90;;;;;;5039041;28;19921;-58
2023/02/07 11:31:19;;;;;;;;;;;2.70;99.90;;;;;;5045827;28;19943;-58
2023/02/07 11:33:47;;;;;;;;;;;2.90;99.90;;;;;;5036584;28;19928;-59
2023/02/07 11:36:22;;;;;;;;;;;3.00;99.90;;;;;;5041324;28;20008;-64
2023/02/07 11:38:50;;;;;;;;;;;3.10;99.90;;;;;;5044595;28;19921;-64
2023/02/07 11:41:18;;;;;;;;;;;3.30;99.90;;;;;;5033687;28;20149;-64
2023/02/07 11:43:57;;;;;;;;;;;3.40;99.90;;;;;;5051270;28;19920;-64
2023/02/07 11:46:30;;;;;;;;;;;3.50;99.90;;;;;;5042197;28;19956;-64
2023/02/07 11:48:58;;;;;;;;;;;3.60;99.90;;;;;;5049667;28;19921;-64
2023/02/07 11:51:25;;;;;;;;;;;3.80;99.90;;;;;;5047037;28;20236;-65
2023/02/07 11:53:54;;;;;;;;;;;3.80;99.90;;;;;;5037812;28;19943;-64
2023/02/07 11:56:23;;;;;;;;;;;3.70;99.90;;;;;;5041654;28;19964;-66
2023/02/07 11:58:50;;;;;;;;;;;3.80;99.90;;;;;;5037982;28;20313;-65
2023/02/07 12:01:22;;;;;;;;;;;3.80;99.90;;;;;;5045822;28;19920;-64
2023/02/07 12:03:51;;;;;;;;;;;3.60;99.90;;;;;;5034270;28;20243;-61
2023/02/07 12:06:20;;;;;;;;;;;3.60;99.90;;;;;;5045282;28;19946;-63
2023/02/07 12:08:48;;;;;;;;;;;3.80;99.90;;;;;;5034557;28;19921;-62
2023/02/07 12:11:17;;;;;;;;;;;3.90;99.90;;;;;;5045624;28;19920;-61
2023/02/07 12:13:47;;;;;;;;;;;3.90;99.90;;;;;;5034982;28;19920;-61
2023/02/07 12:16:17;;;;;;;;;;;4.10;99.90;;;;;;5040105;28;19975;-62
2023/02/07 12:18:49;;;;;;;;;;;4.20;99.90;;;;;;5042933;28;20256;-62
2023/02/07 12:21:19;;;;;;;;;;;4.00;99.90;;;;;;5051933;28;19964;-62
2023/02/07 12:23:48;;;;;;;;;;;4.00;99.90;;;;;;5052961;28;19921;-61
2023/02/07 12:26:19;;;;;;;;;;;4.10;99.90;;;;;;5051327;28;19965;-62
2023/02/07 12:28:49;;;;;;;;;;;4.20;99.90;;;;;;5052421;28;19927;-62
2023/02/07 12:31:21;;;;;;;;;;;4.20;99.90;;;;;;5047662;28;19929;-62
2023/02/07 12:33:52;;;;;;;;;;;4.20;99.90;;;;;;5051387;28;19920;-62
2023/02/07 12:36:23;;;;;;;;;;;4.30;99.90;;;;;;5052107;28;19928;-62
2023/02/07 12:38:57;;;;;;;;;;;4.10;99.90;;;;;;5031461;28;19998;-62
2023/02/07 12:41:26;;;;;;;;;;;4.20;99.90;;;;;;5036207;28;20019;-61
2023/02/07 12:43:57;;;;;;;;;;;4.20;99.90;;;;;;5050814;28;19935;-62
2023/02/07 12:46:31;;;;;;;;;;;4.30;99.90;;;;;;5053428;28;19921;-63
2023/02/07 12:49:08;;;;;;;;;;;4.10;99.90;;;;;;5061861;28;19920;-62
2023/02/07 12:51:40;;;;;;;;;;;4.10;99.90;;;;;;5074608;28;19920;-63
2023/02/07 12:54:11;;;;;;;;;;;4.20;99.90;;;;;;5075016;28;19921;-63
2023/02/07 12:56:44;;;;;;;;;;;4.40;99.90;;;;;;5073968;28;20324;-63
2023/02/07 12:59:14;;;;;;;;;;;4.50;99.90;;;;;;5074603;28;19928;-63
2023/02/07 13:01:45;;;;;;;;;;;4.50;99.90;;;;;;5074581;28;19920;-63
2023/02/07 13:04:24;;;;;;;;;;;4.40;99.90;;;;;;5075358;28;19935;-63
2023/02/07 13:06:56;;;;;;;;;;;4.50;99.90;;;;;;5075638;28;19920;-62
2023/02/07 13:09:26;;;;;;;;;;;4.50;99.90;;;;;;5075236;28;20304;-62
2023/02/07 13:11:56;;;;;;;;;;;4.50;99.90;;;;;;5074935;28;19927;-64
2023/02/07 13:14:30;;;;;;;;;;;4.50;99.90;;;;;;5076330;28;19970;-61
2023/02/07 13:17:13;;;;;;;;;;;4.40;99.90;;;;;;5074900;28;19927;-62
2023/02/07 13:19:45;;;;;;;;;;;4.40;99.90;;;;;;5074987;28;19924;-63
2023/02/07 13:22:17;;;;;;;;;;;4.50;99.90;;;;;;5075034;28;19920;-64
2023/02/07 13:24:44;;;;;;;;;;;4.60;99.90;;;;;;5075673;28;20300;-64
2023/02/07 13:27:16;;;;;;;;;;;4.60;99.90;;;;;;5075374;28;19925;-64
2023/02/07 13:29:44;;;;;;;;;;;4.60;99.90;;;;;;5075574;28;19924;-64
2023/02/07 13:32:14;;;;;;;;;;;4.60;99.90;;;;;;5072633;28;20266;-63
2023/02/07 13:34:47;;;;;;;;;;;4.70;99.90;;;;;;5073407;28;19920;-64
2023/02/07 13:37:15;;;;;;;;;;;4.70;99.90;;;;;;5074015;28;19924;-64
2023/02/07 13:39:46;;;;;;;;;;;4.80;99.90;;;;;;5074170;28;19920;-64
2023/02/07 13:42:19;;;;;;;;;;;4.80;99.90;;;;;;5074978;28;19920;-64
2023/02/07 13:44:51;;;;;;;;;;;4.80;99.90;;;;;;5074031;28;20320;-64
2023/02/07 13:47:36;;;;;;;;;;;4.90;99.90;;;;;;5073607;28;19925;-63
2023/02/07 13:50:11;;;;;;;;;;;4.80;99.90;;;;;;5073521;28;19929;-66
2023/02/07 13:52:43;;;;;;;;;;;4.60;99.90;;;;;;5074074;28;19924;-63
2023/02/07 13:55:15;;;;;;;;;;;4.60;99.90;;;;;;5075472;28;19920;-66
2023/02/07 14:00:28;;;;;;;;;;;4.70;99.90;;;;;;5072979;28;19928;-65
2023/02/07 14:02:56;;;;;;;;;;;4.70;99.90;;;;;;5075858;28;19924;-67
2023/02/07 14:05:27;;;;;;;;;;;4.60;99.90;;;;;;5072853;28;20292;-63
2023/02/07 14:07:56;;;;;;;;;;;4.60;99.90;;;;;;5070867;28;19928;-64
2023/02/07 14:10:42;;;;;;;;;;;4.60;99.90;;;;;;5073819;28;20456;-64
2023/02/07 14:13:20;;;;;;;;;;;4.60;99.90;;;;;;5072560;28;19926;-64
2023/02/07 14:15:55;;;;;;;;;;;4.50;99.90;;;;;;5074551;28;19927;-64
2023/02/07 14:18:42;;;;;;;;;;;4.50;99.90;;;;;;5072127;28;20085;-65
2023/02/07 14:21:27;;;;;;;;;;;4.60;99.90;;;;;;5072281;28;20308;-66
2023/02/07 14:24:18;;;;;;;;;;;4.60;99.90;;;;;;5072328;28;20425;-65
2023/02/07 14:27:05;;;;;;;;;;;4.80;99.90;;;;;;5052876;28;20313;-65
2023/02/07 14:29:53;;;;;;;;;;;4.70;99.90;;;;;;5065006;28;20339;-65
2023/02/07 14:32:32;;;;;;;;;;;4.70;99.90;;;;;;5066516;28;20267;-65
2023/02/07 14:35:00;;;;;;;;;;;4.70;99.90;;;;;;5066678;28;20363;-66
2023/02/07 14:37:37;;;;;;;;;;;4.70;99.90;;;;;;5067888;28;20300;-65
2023/02/07 14:40:08;;;;;;;;;;;4.70;99.90;;;;;;5059781;28;19931;-65
2023/02/07 14:42:36;;;;;;;;;;;4.60;99.90;;;;;;5072314;28;19920;-67
2023/02/07 14:45:03;;;;;;;;;;;4.50;99.90;;;;;;5069239;28;19920;-68
2023/02/07 14:47:32;;;;;;;;;;;4.50;99.90;;;;;;5069693;28;19921;-67
2023/02/07 14:50:00;;;;;;;;;;;4.40;99.90;;;;;;5070581;28;19926;-67